Time,TemperatureF,DewpointF,PressureIn,WindDirection,WindDirectionDegrees,WindSpeedMPH,WindSpeedGustMPH,Humidity,HourlyPrecipIn,Conditions,Clouds,dailyrainin,SolarRadiationWatts/m^2,SoftwareType,DateUTC
2013-05-06 00:02:00,75.0,67.0,-100.00,NW,321,4.0,7.0,77,0.06,,,2.52,1.000000,,2013-05-06 10:02:00,
2013-05-06 00:12:00,75.0,67.0,-100.00,NW,321,4.0,7.0,77,0.06,,,2.52,1.000000,,2013-05-06 10:12:00,
2013-05-06 00:22:00,75.0,67.0,-100.00,NW,321,4.0,7.0,77,0.06,,,2.52,1.000000,,2013-05-06 10:22:00,
2013-05-06 00:32:00,75.0,67.0,-100.00,NW,321,4.0,7.0,77,0.06,,,2.52,1.000000,,2013-05-06 10:32:00,
2013-05-06 01:02:00,76.0,68.0,-100.00,North,353,4.0,9.0,77,0.00,,,2.52,1.000000,,2013-05-06 11:02:00,
2013-05-06 01:12:00,76.0,68.0,-100.00,North,353,4.0,9.0,77,0.00,,,2.52,1.000000,,2013-05-06 11:12:00,
2013-05-06 01:22:00,76.0,68.0,-100.00,North,353,4.0,9.0,77,0.00,,,2.52,1.000000,,2013-05-06 11:22:00,
2013-05-06 01:31:00,76.0,68.0,-100.00,North,353,4.0,9.0,77,0.00,,,2.52,1.000000,,2013-05-06 11:31:00,
2013-05-06 02:01:00,74.0,66.0,-100.00,NE,53,2.0,7.0,77,0.00,,,2.52,1.000000,,2013-05-06 12:01:00,
2013-05-06 02:12:00,74.0,66.0,-100.00,NE,53,2.0,7.0,77,0.00,,,2.52,1.000000,,2013-05-06 12:12:00,
2013-05-06 02:21:00,74.0,66.0,-100.00,NE,53,2.0,7.0,77,0.00,,,2.52,1.000000,,2013-05-06 12:21:00,
2013-05-06 02:31:00,74.0,66.0,-100.00,NE,53,2.0,7.0,77,0.00,,,2.52,1.000000,,2013-05-06 12:31:00,
2013-05-06 03:01:00,75.0,67.0,-100.00,East,94,3.0,6.0,77,0.00,,,-99.99,1.000000,,2013-05-06 13:01:00,
2013-05-06 03:11:00,75.0,67.0,-100.00,East,94,3.0,6.0,77,0.00,,,-99.99,1.000000,,2013-05-06 13:11:00,
2013-05-06 03:21:00,75.0,67.0,-100.00,East,94,3.0,6.0,77,0.00,,,-99.99,1.000000,,2013-05-06 13:21:00,
2013-05-06 03:31:00,75.0,67.0,-100.00,East,94,3.0,6.0,77,0.00,,,-99.99,1.000000,,2013-05-06 13:31:00,
2013-05-06 04:01:00,74.0,66.0,-100.00,North,9,1.0,7.0,77,0.00,,,2.52,1.000000,,2013-05-06 14:01:00,
2013-05-06 04:11:00,74.0,66.0,-100.00,North,9,1.0,7.0,77,0.00,,,2.52,1.000000,,2013-05-06 14:11:00,
2013-05-06 04:21:00,74.0,66.0,-100.00,North,9,1.0,7.0,77,0.00,,,2.52,1.000000,,2013-05-06 14:21:00,
2013-05-06 04:32:00,74.0,66.0,-100.00,North,9,1.0,7.0,77,0.00,,,2.52,1.000000,,2013-05-06 14:32:00,
2013-05-06 05:01:00,73.0,65.0,-100.00,NW,324,0.0,2.0,77,0.00,,,2.39,1.000000,,2013-05-06 15:01:00,
2013-05-06 05:11:00,73.0,65.0,-100.00,NW,324,0.0,2.0,77,0.00,,,2.39,1.000000,,2013-05-06 15:11:00,
2013-05-06 05:21:00,73.0,65.0,-100.00,NW,324,0.0,2.0,77,0.00,,,2.39,1.000000,,2013-05-06 15:21:00,
2013-05-06 05:33:00,73.0,65.0,-100.00,NW,324,0.0,2.0,77,0.00,,,2.39,1.000000,,2013-05-06 15:33:00,
2013-05-06 06:03:00,73.0,65.0,-100.00,North,357,1.0,4.0,77,0.01,,,2.05,1.000000,,2013-05-06 16:03:00,
2013-05-06 06:13:00,73.0,65.0,-100.00,North,357,1.0,4.0,77,0.01,,,2.05,1.000000,,2013-05-06 16:13:00,
2013-05-06 06:23:00,73.0,65.0,-100.00,North,357,1.0,4.0,77,0.01,,,2.05,1.000000,,2013-05-06 16:23:00,
2013-05-06 06:32:00,73.0,65.0,-100.00,North,357,1.0,4.0,77,0.01,,,2.05,1.000000,,2013-05-06 16:32:00,
2013-05-06 07:02:00,74.0,66.0,-100.00,NW,306,1.0,3.0,75,0.00,,,2.04,14.000000,,2013-05-06 17:02:00,
2013-05-06 07:12:00,74.0,66.0,-100.00,NW,306,1.0,3.0,75,0.00,,,2.04,14.000000,,2013-05-06 17:12:00,
2013-05-06 07:23:00,74.0,66.0,-100.00,NW,306,1.0,3.0,75,0.00,,,2.04,14.000000,,2013-05-06 17:23:00,
2013-05-06 07:31:00,74.0,66.0,-100.00,NW,306,1.0,3.0,75,0.00,,,2.04,14.000000,,2013-05-06 17:31:00,
2013-05-06 08:01:00,78.0,69.0,-100.00,NE,55,1.0,3.0,73,0.00,,,2.04,98.000000,,2013-05-06 18:01:00,
2013-05-06 08:12:00,78.0,69.0,-100.00,NE,55,1.0,3.0,73,0.00,,,2.04,98.000000,,2013-05-06 18:12:00,
2013-05-06 08:21:00,78.0,69.0,-100.00,NE,55,1.0,3.0,73,0.00,,,2.04,98.000000,,2013-05-06 18:21:00,
2013-05-06 08:31:00,78.0,69.0,-100.00,NE,55,1.0,3.0,73,0.00,,,2.04,98.000000,,2013-05-06 18:31:00,
2013-05-06 09:01:00,78.0,67.0,-100.00,SW,227,2.0,4.0,70,0.00,,,2.04,194.000000,,2013-05-06 19:01:00,
2013-05-06 09:11:00,78.0,67.0,-100.00,SW,227,2.0,4.0,70,0.00,,,2.04,194.000000,,2013-05-06 19:11:00,
2013-05-06 09:22:00,78.0,67.0,-100.00,SW,227,2.0,4.0,70,0.00,,,2.04,194.000000,,2013-05-06 19:22:00,
2013-05-06 09:32:00,78.0,67.0,-100.00,SW,227,2.0,4.0,70,0.00,,,2.04,194.000000,,2013-05-06 19:32:00,
2013-05-06 10:01:00,83.0,67.0,-100.00,WNW,298,2.0,6.0,58,0.00,,,2.02,411.000000,,2013-05-06 20:01:00,
2013-05-06 10:11:00,83.0,67.0,-100.00,WNW,298,2.0,6.0,58,0.00,,,2.02,411.000000,,2013-05-06 20:11:00,
2013-05-06 10:21:00,83.0,67.0,-100.00,WNW,298,2.0,6.0,58,0.00,,,2.02,411.000000,,2013-05-06 20:21:00,
2013-05-06 10:32:00,83.0,67.0,-100.00,WNW,298,2.0,6.0,58,0.00,,,2.02,411.000000,,2013-05-06 20:32:00,
2013-05-06 11:01:00,81.0,67.0,-100.00,SE,127,3.0,6.0,63,0.00,,,2.02,212.000000,,2013-05-06 21:01:00,
2013-05-06 11:11:00,81.0,67.0,-100.00,SE,127,3.0,6.0,63,0.00,,,2.02,212.000000,,2013-05-06 21:11:00,
2013-05-06 11:21:00,81.0,67.0,-100.00,SE,127,3.0,6.0,63,0.00,,,2.02,212.000000,,2013-05-06 21:21:00,
2013-05-06 11:32:00,81.0,67.0,-100.00,SE,127,3.0,6.0,63,0.00,,,2.02,212.000000,,2013-05-06 21:32:00,
2013-05-06 12:03:00,84.0,67.0,-100.00,East,89,2.0,6.0,56,0.00,,,2.01,372.000000,,2013-05-06 22:03:00,
2013-05-06 12:12:00,84.0,67.0,-100.00,East,89,2.0,6.0,56,0.00,,,2.01,372.000000,,2013-05-06 22:12:00,
2013-05-06 12:22:00,84.0,67.0,-100.00,East,89,2.0,6.0,56,0.00,,,2.01,372.000000,,2013-05-06 22:22:00,
2013-05-06 12:33:00,84.0,67.0,-100.00,East,89,2.0,6.0,56,0.00,,,2.01,372.000000,,2013-05-06 22:33:00,
2013-05-06 13:02:00,89.0,68.0,-100.00,SSE,153,4.0,9.0,51,0.00,,,1.80,760.000000,,2013-05-06 23:02:00,
2013-05-06 13:12:00,89.0,68.0,-100.00,SSE,153,4.0,9.0,51,0.00,,,1.80,760.000000,,2013-05-06 23:12:00,
2013-05-06 13:22:00,89.0,68.0,-100.00,SSE,153,4.0,9.0,51,0.00,,,1.80,760.000000,,2013-05-06 23:22:00,
2013-05-06 13:31:00,89.0,68.0,-100.00,SSE,153,4.0,9.0,51,0.00,,,1.80,760.000000,,2013-05-06 23:31:00,
2013-05-06 14:01:00,91.0,63.0,-100.00,SE,137,4.0,10.0,39,0.00,,,1.65,1110.000000,,2013-05-07 00:01:00,
2013-05-06 14:11:00,91.0,63.0,-100.00,SE,137,4.0,10.0,39,0.00,,,1.65,1110.000000,,2013-05-07 00:11:00,
2013-05-06 14:21:00,91.0,63.0,-100.00,SE,137,4.0,10.0,39,0.00,,,1.65,1110.000000,,2013-05-07 00:21:00,
2013-05-06 14:31:00,91.0,63.0,-100.00,SE,137,4.0,10.0,39,0.00,,,1.65,1110.000000,,2013-05-07 00:31:00,
2013-05-06 15:01:00,90.0,59.0,-100.00,North,1,3.0,9.0,35,0.00,,,1.65,1032.000000,,2013-05-07 01:01:00,
2013-05-06 15:11:00,90.0,59.0,-100.00,North,1,3.0,9.0,35,0.00,,,1.65,1032.000000,,2013-05-07 01:11:00,
2013-05-06 15:21:00,90.0,59.0,-100.00,North,1,3.0,9.0,35,0.00,,,1.65,1032.000000,,2013-05-07 01:21:00,
2013-05-06 15:31:00,90.0,59.0,-100.00,North,1,3.0,9.0,35,0.00,,,1.65,1032.000000,,2013-05-07 01:31:00,
2013-05-06 16:02:00,89.0,56.0,-100.00,SSE,154,4.0,10.0,33,0.00,,,1.65,795.000000,,2013-05-07 02:02:00,
2013-05-06 16:11:00,89.0,56.0,-100.00,SSE,154,4.0,10.0,33,0.00,,,1.65,795.000000,,2013-05-07 02:11:00,
2013-05-06 16:21:00,89.0,56.0,-100.00,SSE,154,4.0,10.0,33,0.00,,,1.65,795.000000,,2013-05-07 02:21:00,
2013-05-06 16:31:00,89.0,56.0,-100.00,SSE,154,4.0,10.0,33,0.00,,,1.65,795.000000,,2013-05-07 02:31:00,
2013-05-06 17:01:00,86.0,55.0,-100.00,WSW,244,3.0,8.0,35,0.00,,,1.65,593.000000,,2013-05-07 03:01:00,
2013-05-06 17:11:00,86.0,55.0,-100.00,WSW,244,3.0,8.0,35,0.00,,,1.65,593.000000,,2013-05-07 03:11:00,
2013-05-06 17:21:00,86.0,55.0,-100.00,WSW,244,3.0,8.0,35,0.00,,,1.65,593.000000,,2013-05-07 03:21:00,
2013-05-06 17:32:00,86.0,55.0,-100.00,WSW,244,3.0,8.0,35,0.00,,,1.65,593.000000,,2013-05-07 03:32:00,
2013-05-06 18:02:00,80.0,53.0,-100.00,NW,312,2.0,7.0,39,0.00,,,1.65,327.000000,,2013-05-07 04:02:00,
2013-05-06 18:12:00,80.0,53.0,-100.00,NW,312,2.0,7.0,39,0.00,,,1.65,327.000000,,2013-05-07 04:12:00,
2013-05-06 18:23:00,80.0,53.0,-100.00,NW,312,2.0,7.0,39,0.00,,,1.65,327.000000,,2013-05-07 04:23:00,
2013-05-06 18:32:00,80.0,53.0,-100.00,NW,312,2.0,7.0,39,0.00,,,1.65,327.000000,,2013-05-07 04:32:00,
2013-05-06 19:02:00,77.0,55.0,-100.00,East,100,1.0,6.0,47,0.00,,,1.62,37.000000,,2013-05-07 05:02:00,
2013-05-06 19:12:00,77.0,55.0,-100.00,East,100,1.0,6.0,47,0.00,,,1.62,37.000000,,2013-05-07 05:12:00,
2013-05-06 19:22:00,77.0,55.0,-100.00,East,100,1.0,6.0,47,0.00,,,1.62,37.000000,,2013-05-07 05:22:00,
2013-05-06 19:32:00,77.0,55.0,-100.00,East,100,1.0,6.0,47,0.00,,,1.62,37.000000,,2013-05-07 05:32:00,
2013-05-06 20:02:00,76.0,60.0,-100.00,East,83,2.0,5.0,57,0.00,,,0.99,5.000000,,2013-05-07 06:02:00,
2013-05-06 20:12:00,76.0,60.0,-100.00,East,83,2.0,5.0,57,0.00,,,0.99,5.000000,,2013-05-07 06:12:00,
2013-05-06 20:21:00,76.0,60.0,-100.00,East,83,2.0,5.0,57,0.00,,,0.99,5.000000,,2013-05-07 06:21:00,
2013-05-06 20:32:00,76.0,60.0,-100.00,East,83,2.0,5.0,57,0.00,,,0.99,5.000000,,2013-05-07 06:32:00,
2013-05-06 21:02:00,76.0,59.0,-100.00,North,6,3.0,5.0,55,0.00,,,0.64,0.000000,,2013-05-07 07:02:00,
2013-05-06 21:11:00,76.0,59.0,-100.00,North,6,3.0,5.0,55,0.00,,,0.64,0.000000,,2013-05-07 07:11:00,
2013-05-06 21:22:00,76.0,59.0,-100.00,North,6,3.0,5.0,55,0.00,,,0.64,0.000000,,2013-05-07 07:22:00,
2013-05-06 21:31:00,76.0,59.0,-100.00,North,6,3.0,5.0,55,0.00,,,0.64,0.000000,,2013-05-07 07:31:00,
2013-05-06 22:02:00,77.0,56.0,-100.00,North,6,4.0,5.0,49,0.00,,,0.16,1.000000,,2013-05-07 08:02:00,
2013-05-06 22:11:00,77.0,56.0,-100.00,North,6,4.0,5.0,49,0.00,,,0.16,1.000000,,2013-05-07 08:11:00,
2013-05-06 22:21:00,77.0,56.0,-100.00,North,6,4.0,5.0,49,0.00,,,0.16,1.000000,,2013-05-07 08:21:00,
2013-05-06 22:31:00,77.0,56.0,-100.00,North,6,4.0,5.0,49,0.00,,,0.16,1.000000,,2013-05-07 08:31:00,
2013-05-06 23:01:00,76.0,56.0,-100.00,North,4,2.0,6.0,50,0.00,,,0.07,1.000000,,2013-05-07 09:01:00,
2013-05-06 23:11:00,76.0,56.0,-100.00,North,4,2.0,6.0,50,0.00,,,0.07,1.000000,,2013-05-07 09:11:00,
2013-05-06 23:22:00,76.0,56.0,-100.00,North,4,2.0,6.0,50,0.00,,,0.07,1.000000,,2013-05-07 09:22:00,
2013-05-06 23:33:00,76.0,56.0,-100.00,North,4,2.0,6.0,50,0.00,,,0.07,1.000000,,2013-05-07 09:33:00,